Terminal Aerodrome Forecast
Issued by NWS Louisville, KY

Home | Current Version | Previous Version | Text Only | Print | Product List | Glossary On
Versions: 1 2 3 4 5 6 7 8 9 10 11 12
686
FTUS43 KLMK 192323
TAFLEX
TAF
KLEX 192323Z 2000/2024 20004KT P6SM SKC
     FM200900 19003KT 2SM BR FEW250
      TEMPO 2009/2012 1/2SM FG
     FM201400 17005KT P6SM FEW250=

USA.gov is the U.S. government's official web portal to all federal, state and local government web resources and services.